ZGKL

Guilin Liangjiang International Airport

Guilin City, China
TAF ZGKL 230311Z 2306/2406 05004MPS 4000 BR SCT030 BKN050 TX25/2308Z TN17/2322Z TEMPO 2306/2312 2000 SHRA BR FEW007 SCT026 FEW033CB OVC040
Issued Valid From Valid To
Apr-23 @ 03:11 UTC
(6 hours ago)
Apr-23 @ 06:00 UTC
(4 hours ago)
Apr-24 @ 06:00 UTC
(in 20 hours)
Apr-23 @ 06:00 to Apr-24 @ 06:00
TAF ZGKL 230311Z 2306/2406 05004MPS 4000 BR SCT030 BKN050 TX25/2308Z TN17/2322Z
Wind Visibility Clouds Conditions
50° at 8 knots 4,007 meters
  • Scattered at 3,000' AGL
  • Broken at 5,000' AGL
  • Mist
Temporary Apr-23 @ 06:00 to Apr-23 @ 12:00
TEMPO 2306/2312 2000 SHRA BR FEW007 SCT026 FEW033CB OVC040
Visibility Clouds Conditions
1,996 meters
  • Few at 700' AGL
  • Scattered at 2,600' AGL
  • Few at 3,300' AGL
  • Rain
  • Mist
TAF ZGKL 230311Z 2306/2406 05004MPS 4000 BR SCT030 BKN050 TX25/2308Z TN17/2322Z TEMPO 2306/2312 2000 SHRA BR FEW007 SCT026 FEW033CB OVC040
Issued Apr-23 @ 03:11 UTC
(6 hours ago)
Valid From Apr-23 @ 06:00 UTC
(4 hours ago)
Valid To Apr-24 @ 06:00 UTC
(in 20 hours)
Apr-23 @ 06:00 - Apr-24 @ 06:00
Wind Visibility
50° at 8 knots 4,007 meters
Clouds
  • Scattered at 3,000' AGL
  • Broken at 5,000' AGL
Conditions
  • Mist
Temporary Apr-23 @ 06:00 - Apr-23 @ 12:00
Clouds
  • Few at 700' AGL
  • Scattered at 2,600' AGL
  • Few at 3,300' AGL
Conditions
  • Rain
  • Mist